Terminal Aerodrome Forecast
Issued by NWS Wilmington, OH

Current Version | Previous Version | Text Only | Print | Product List | Glossary Off
Versions: 1 2 3 4 5 6 7 8 9 10 11 12 13 14 15 16 17 18 19 20 21 22 23 24 25

658
FTUS41 KILN 181842 AAA
TAFCVG
TAF AMD
KCVG 181842Z 1819/1924 20023G40KT P6SM -SHRA OVC018 WS020/22055KT
     FM182200 22018G34KT 2SM +SHRA BR VCTS OVC012CB WS020/22055KT
      TEMPO 1822/1823 26035G45KT 1SM +TSRA OVC008CB
     FM190000 30020G38KT 4SM -SHRA BR OVC012
     FM190400 31018G32KT P6SM OVC015
     FM190800 30012G20KT P6SM OVC022
     FM191800 29012G18KT P6SM BKN025=

USA.gov is the U.S. government's official web portal to all federal, state and local government web resources and services.